Time;durP1;ratioP1;P1;durP2;ratioP2;P2;SDS_P1;SDS_P2;PMS_P1;PMS_P2;Temp;Humidity;BMP_temperature;BMP_pressure;BME280_temperature;BME280_humidity;BME280_pressure;Samples;Min_cycle;Max_cycle;Signal;HPM_P1;HPM_P2
2023/08/16 00:00:47;;;;;;;;;6.67;3.00;;;;;24.26;100.00;101590.94;5075828;28;73200;-70
2023/08/16 00:03:13;;;;;;;;;2.00;2.00;;;;;24.26;100.00;101594.53;5076828;28;45208;-71
2023/08/16 00:05:41;;;;;;;;;5.00;3.00;;;;;24.26;100.00;101585.53;5078465;27;59854;-70
2023/08/16 00:08:07;;;;;;;;;5.33;3.00;;;;;24.28;100.00;101581.84;5075772;28;45724;-70
2023/08/16 00:10:32;;;;;;;;;3.00;1.33;;;;;24.31;100.00;101587.16;5076629;27;73029;-70
2023/08/16 00:12:58;;;;;;;;;4.00;2.00;;;;;24.28;100.00;101587.25;5080616;27;45283;-70
2023/08/16 00:15:27;;;;;;;;;4.67;2.00;;;;;24.26;100.00;101583.72;5077483;27;53475;-70
2023/08/16 00:17:53;;;;;;;;;2.00;2.00;;;;;24.21;100.00;101574.91;5077215;28;45506;-71
2023/08/16 00:20:24;;;;;;;;;2.33;2.33;;;;;24.25;100.00;101581.09;5076603;28;45424;-69
2023/08/16 00:22:50;;;;;;;;;1.00;1.00;;;;;24.22;100.00;101584.75;5076509;28;45185;-70
2023/08/16 00:25:15;;;;;;;;;3.33;3.33;;;;;24.20;100.00;101577.66;5076356;28;45213;-71
2023/08/16 00:27:41;;;;;;;;;2.00;2.00;;;;;24.26;100.00;101578.34;5076385;27;53013;-71
2023/08/16 00:30:07;;;;;;;;;3.33;2.67;;;;;24.26;100.00;101582.84;5076357;27;46457;-71
2023/08/16 00:32:32;;;;;;;;;2.00;2.00;;;;;24.21;100.00;101577.59;5076523;28;45264;-70
2023/08/16 00:34:58;;;;;;;;;3.00;3.00;;;;;24.17;100.00;101577.75;5076030;28;45498;-72
2023/08/16 00:37:23;;;;;;;;;3.33;1.67;;;;;24.18;100.00;101571.41;5076588;28;45384;-70
2023/08/16 00:39:49;;;;;;;;;2.00;2.00;;;;;24.17;100.00;101577.75;5075531;28;69372;-70
2023/08/16 00:42:14;;;;;;;;;3.33;2.67;;;;;24.19;100.00;101571.38;5073743;27;62681;-71
2023/08/16 00:44:40;;;;;;;;;2.33;2.33;;;;;24.16;100.00;101565.19;5073908;27;55272;-70
2023/08/16 00:47:05;;;;;;;;;3.33;3.00;;;;;24.14;100.00;101569.78;5071093;28;45682;-71
2023/08/16 00:49:31;;;;;;;;;4.00;2.00;;;;;24.14;100.00;101558.97;5068760;27;68742;-70
2023/08/16 00:51:57;;;;;;;;;6.00;2.00;;;;;24.13;100.00;101559.88;5076385;27;45391;-70
2023/08/16 00:54:22;;;;;;;;;4.00;2.00;;;;;24.12;100.00;101559.00;5078248;27;45593;-70
2023/08/16 00:56:48;;;;;;;;;3.00;3.00;;;;;24.11;100.00;101565.34;5062154;28;45489;-70
2023/08/16 00:59:14;;;;;;;;;2.00;2.00;;;;;24.10;100.00;101560.91;5076502;27;67919;-70
2023/08/16 01:01:39;;;;;;;;;3.00;2.00;;;;;24.07;100.00;101550.19;5058119;28;45489;-70
2023/08/16 01:04:05;;;;;;;;;2.00;2.00;;;;;24.08;100.00;101551.97;5073987;27;45390;-71
2023/08/16 01:06:30;;;;;;;;;3.00;2.00;;;;;24.05;100.00;101544.84;5076058;28;61493;-71
2023/08/16 01:08:56;;;;;;;;;3.67;3.67;;;;;24.08;100.00;101533.09;5071323;27;62561;-70
2023/08/16 01:11:33;;;;;;;;;2.00;2.00;;;;;24.12;100.00;101541.94;5075688;27;45525;-71
2023/08/16 01:14:02;;;;;;;;;1.67;1.00;;;;;24.13;100.00;101533.81;5043283;28;45521;-71
2023/08/16 01:16:28;;;;;;;;;1.33;1.33;;;;;24.10;100.00;101528.50;5057690;28;45349;-71
2023/08/16 01:18:54;;;;;;;;;4.00;2.67;;;;;24.09;100.00;101528.56;5070294;28;45339;-70
2023/08/16 01:21:20;;;;;;;;;3.00;1.67;;;;;24.09;100.00;101533.97;5056584;28;64048;-70
2023/08/16 01:24:08;;;;;;;;;3.33;2.00;;;;;24.06;100.00;101537.63;5054600;28;45381;-71
2023/08/16 01:26:35;;;;;;;;;4.33;2.00;;;;;24.01;100.00;101550.41;5076004;28;45318;-71
2023/08/16 01:29:03;;;;;;;;;1.00;1.00;;;;;23.97;100.00;101556.81;5075656;28;46637;-71
2023/08/16 01:31:29;;;;;;;;;2.00;2.00;;;;;23.97;100.00;101557.72;5074135;28;45451;-71
2023/08/16 01:33:55;;;;;;;;;2.00;2.00;;;;;23.95;100.00;101558.69;5075442;28;45237;-71
2023/08/16 01:36:20;;;;;;;;;1.67;1.67;;;;;23.93;100.00;101563.28;5069805;28;45514;-71
2023/08/16 01:38:46;;;;;;;;;2.00;2.00;;;;;23.95;100.00;101566.78;5075297;28;46387;-71
2023/08/16 01:41:21;;;;;;;;;2.00;1.00;;;;;23.93;100.00;101569.56;5074473;28;45440;-70
2023/08/16 01:43:46;;;;;;;;;3.00;1.33;;;;;23.93;100.00;101572.25;5035240;28;45459;-71
2023/08/16 01:46:13;;;;;;;;;4.00;2.33;;;;;23.93;100.00;101577.66;5033451;28;57679;-71
2023/08/16 01:48:38;;;;;;;;;3.67;2.00;;;;;23.89;100.00;101572.41;5034426;28;71645;-71
2023/08/16 01:51:05;;;;;;;;;1.00;1.00;;;;;23.89;100.00;101578.66;5033691;28;45488;-70
2023/08/16 01:53:35;;;;;;;;;3.00;2.00;;;;;23.89;100.00;101577.78;5033737;28;45559;-71
2023/08/16 01:56:00;;;;;;;;;4.00;2.33;;;;;23.89;100.00;101581.38;5035029;28;45483;-71
2023/08/16 01:58:26;;;;;;;;;2.00;2.00;;;;;23.91;100.00;101573.22;5034690;28;46537;-71
2023/08/16 02:00:51;;;;;;;;;2.00;2.00;;;;;23.89;100.00;101565.19;5034509;28;67910;-70
2023/08/16 02:03:16;;;;;;;;;2.00;2.00;;;;;23.85;100.00;101566.22;5034607;28;52296;-71
2023/08/16 02:05:42;;;;;;;;;2.00;2.00;;;;;23.85;100.00;101571.59;5034399;28;56826;-69
2023/08/16 02:08:10;;;;;;;;;1.00;1.00;;;;;23.83;100.00;101572.59;5034790;28;46654;-72
2023/08/16 02:10:35;;;;;;;;;1.00;1.00;;;;;23.81;100.00;101579.84;5034730;28;45434;-71
2023/08/16 02:13:01;;;;;;;;;3.00;1.33;;;;;23.73;100.00;101577.41;5035508;28;45427;-71
2023/08/16 02:15:26;;;;;;;;;1.33;1.33;;;;;23.71;100.00;101572.06;5033444;28;59333;-71
2023/08/16 02:17:51;;;;;;;;;3.00;2.00;;;;;23.68;100.00;101566.75;5034848;28;46450;-71
2023/08/16 02:20:17;;;;;;;;;1.00;1.00;;;;;23.68;100.00;101569.44;5033915;28;66448;-70
2023/08/16 02:22:42;;;;;;;;;1.00;1.00;;;;;23.64;100.00;101570.47;5032962;28;46139;-70
2023/08/16 02:25:08;;;;;;;;;1.67;1.67;;;;;23.64;100.00;101569.59;5032852;28;62686;-71
2023/08/16 02:27:33;;;;;;;;;1.67;1.00;;;;;23.65;100.00;101576.75;5033289;28;46520;-71
2023/08/16 02:29:58;;;;;;;;;1.00;1.00;;;;;23.63;100.00;101570.53;5033733;28;63368;-70
2023/08/16 02:32:24;;;;;;;;;1.67;1.00;;;;;23.63;100.00;101565.13;5033533;28;62326;-71
2023/08/16 02:34:49;;;;;;;;;2.00;1.00;;;;;23.63;100.00;101565.13;5034899;28;45432;-71
2023/08/16 02:37:14;;;;;;;;;2.67;2.00;;;;;23.62;100.00;101557.94;5033523;28;68209;-71
2023/08/16 02:39:40;;;;;;;;;3.00;2.00;;;;;23.61;100.00;101558.88;5033603;28;68387;-70
2023/08/16 02:42:05;;;;;;;;;2.00;1.00;;;;;23.60;100.00;101570.59;5042415;28;63664;-71
2023/08/16 02:44:31;;;;;;;;;1.00;1.00;;;;;23.57;100.00;101568.00;5071914;28;45552;-70
2023/08/16 02:46:56;;;;;;;;;1.00;1.00;;;;;23.56;100.00;101556.34;5074124;28;71798;-70
2023/08/16 02:49:21;;;;;;;;;3.00;1.00;;;;;23.58;100.00;101567.94;5074389;27;64474;-71
2023/08/16 02:51:46;;;;;;;;;1.33;0.67;;;;;23.57;100.00;101557.22;5074982;28;62081;-70
2023/08/16 02:54:13;;;;;;;;;2.00;1.00;;;;;23.57;100.00;101559.91;5077159;28;62162;-70
2023/08/16 02:56:38;;;;;;;;;1.00;1.00;;;;;23.55;100.00;101554.56;5079791;27;45957;-71
2023/08/16 02:59:04;;;;;;;;;1.00;1.00;;;;;23.52;100.00;101562.75;5079987;27;65866;-70
2023/08/16 03:01:29;;;;;;;;;0.67;0.67;;;;;23.52;100.00;101547.44;5077165;27;56724;-70
2023/08/16 03:03:54;;;;;;;;;1.00;1.00;;;;;23.52;100.00;101542.06;5077295;27;51794;-70
2023/08/16 03:06:20;;;;;;;;;1.00;1.00;;;;;23.52;100.00;101543.88;5078982;27;45882;-70
2023/08/16 03:08:45;;;;;;;;;3.00;0.67;;;;;23.51;100.00;101540.28;5077534;27;45410;-70
2023/08/16 03:11:11;;;;;;;;;0.67;0.67;;;;;23.52;100.00;101544.75;5076743;28;63343;-71
2023/08/16 03:13:37;;;;;;;;;1.33;1.33;;;;;23.54;100.00;101544.69;5077065;27;45397;-70
2023/08/16 03:16:02;;;;;;;;;1.00;1.00;;;;;23.53;100.00;101541.13;5078224;27;66847;-70
2023/08/16 03:18:27;;;;;;;;;0.67;0.67;;;;;23.54;100.00;101544.69;5075560;27;45291;-70
2023/08/16 03:20:53;;;;;;;;;1.00;1.00;;;;;23.53;100.00;101545.63;5076478;28;63889;-69
2023/08/16 03:23:18;;;;;;;;;2.00;2.00;;;;;23.49;100.00;101547.56;5074653;28;60219;-70
2023/08/16 03:25:44;;;;;;;;;1.00;1.00;;;;;23.49;100.00;101552.06;5077415;27;66070;-74
2023/08/16 03:28:09;;;;;;;;;0.33;0.33;;;;;23.51;100.00;101540.28;5074987;27;45415;-70
2023/08/16 03:30:34;;;;;;;;;1.00;1.00;;;;;23.53;100.00;101549.19;5076971;27;60538;-69
2023/08/16 03:33:00;;;;;;;;;1.00;1.00;;;;;23.52;100.00;101538.47;5077077;28;62920;-71
2023/08/16 03:35:25;;;;;;;;;2.33;1.00;;;;;23.55;100.00;101545.59;5072687;27;47444;-70
2023/08/16 03:37:51;;;;;;;;;1.33;1.00;;;;;23.50;100.00;101552.00;5077056;28;45295;-71
2023/08/16 03:40:16;;;;;;;;;1.33;0.00;;;;;23.48;100.00;101553.84;5071767;28;63579;-70
2023/08/16 03:42:42;;;;;;;;;1.00;1.00;;;;;23.49;100.00;101557.47;5075014;28;46033;-69
2023/08/16 03:45:07;;;;;;;;;1.00;1.00;;;;;23.48;100.00;101551.16;5076191;28;72010;-71
2023/08/16 03:47:33;;;;;;;;;1.00;1.00;;;;;23.47;100.00;101548.53;5076920;27;45177;-70
2023/08/16 03:49:59;;;;;;;;;1.00;1.00;;;;;23.46;100.00;101550.34;5076412;27;55129;-70
2023/08/16 03:52:25;;;;;;;;;2.00;1.00;;;;;23.44;100.00;101551.34;5077642;27;45580;-71
2023/08/16 03:54:52;;;;;;;;;1.00;1.00;;;;;23.44;100.00;101543.25;5068109;27;45308;-70
2023/08/16 03:57:18;;;;;;;;;3.00;2.00;;;;;23.44;100.00;101554.91;5074024;28;45499;-71
2023/08/16 03:59:43;;;;;;;;;1.00;1.00;;;;;23.44;100.00;101541.44;5075630;27;45241;-70
2023/08/16 04:02:08;;;;;;;;;1.67;1.00;;;;;23.42;100.00;101545.09;5074841;28;62707;-70
2023/08/16 04:04:33;;;;;;;;;1.00;1.00;;;;;23.35;100.00;101541.69;5071298;28;71193;-70
2023/08/16 04:06:59;;;;;;;;;1.00;1.00;;;;;23.38;100.00;101535.31;5075416;28;69991;-70
2023/08/16 04:09:25;;;;;;;;;2.00;2.00;;;;;23.36;100.00;101537.19;5075131;28;45501;-70
2023/08/16 04:11:51;;;;;;;;;1.00;1.00;;;;;23.32;100.00;101539.09;5058825;28;45296;-71
2023/08/16 04:14:16;;;;;;;;;1.00;1.00;;;;;23.34;100.00;101548.03;5076365;27;47273;-70
2023/08/16 04:16:41;;;;;;;;;2.67;1.67;;;;;23.31;100.00;101536.44;5076085;27;61053;-70
2023/08/16 04:19:07;;;;;;;;;1.33;1.33;;;;;23.32;100.00;101549.00;5075890;27;56523;-70
2023/08/16 04:21:32;;;;;;;;;1.00;1.00;;;;;23.28;100.00;101540.13;5075631;28;45671;-70
2023/08/16 04:23:57;;;;;;;;;0.00;0.00;;;;;23.28;100.00;101545.53;5071561;27;68062;-71
2023/08/16 04:26:23;;;;;;;;;1.33;1.33;;;;;23.25;100.00;101533.00;5076459;27;45253;-70
2023/08/16 04:28:48;;;;;;;;;1.00;1.00;;;;;23.21;100.00;101531.34;5076625;27;45606;-70
2023/08/16 04:31:13;;;;;;;;;2.33;1.00;;;;;23.18;100.00;101531.44;5076645;28;45189;-70
2023/08/16 04:33:39;;;;;;;;;1.00;1.00;;;;;23.15;100.00;101534.22;5057357;28;70918;-71
2023/08/16 04:36:05;;;;;;;;;1.00;1.00;;;;;23.13;100.00;101527.13;5076010;28;47007;-71
2023/08/16 04:38:30;;;;;;;;;1.00;1.00;;;;;23.12;100.00;101533.44;5075298;28;45330;-71
2023/08/16 04:40:55;;;;;;;;;1.00;1.00;;;;;23.07;100.00;101532.69;5075273;28;61452;-70
2023/08/16 04:43:21;;;;;;;;;1.00;1.00;;;;;23.05;100.00;101542.63;5074314;28;54057;-70
2023/08/16 04:45:46;;;;;;;;;1.00;1.00;;;;;23.00;100.00;101543.63;5076884;28;45437;-71
2023/08/16 04:48:12;;;;;;;;;2.00;1.00;;;;;22.98;100.00;101539.22;5076274;27;63319;-70
2023/08/16 04:50:37;;;;;;;;;1.00;1.00;;;;;22.94;100.00;101538.44;5076404;28;45636;-71
2023/08/16 04:53:02;;;;;;;;;2.00;2.00;;;;;22.96;100.00;101544.66;5075535;28;69619;-71
2023/08/16 04:55:28;;;;;;;;;2.00;1.00;;;;;22.91;100.00;101548.44;5075920;28;45351;-70
2023/08/16 04:57:53;;;;;;;;;3.00;1.33;;;;;22.88;100.00;101554.75;5076195;28;45280;-70
2023/08/16 05:00:19;;;;;;;;;1.00;1.00;;;;;22.87;100.00;101538.63;5074888;28;61818;-70
2023/08/16 05:02:45;;;;;;;;;2.00;2.00;;;;;22.81;100.00;101545.06;5071268;28;46208;-70
2023/08/16 05:05:10;;;;;;;;;1.00;1.00;;;;;22.80;100.00;101545.09;5074768;28;45479;-71
2023/08/16 05:07:36;;;;;;;;;3.00;1.00;;;;;22.79;100.00;101543.34;5075510;28;58625;-70
2023/08/16 05:10:01;;;;;;;;;2.00;2.00;;;;;22.72;100.00;101543.50;5075449;28;61563;-71
2023/08/16 05:12:27;;;;;;;;;2.00;1.00;;;;;22.72;100.00;101550.72;5075378;28;47053;-71
2023/08/16 05:14:52;;;;;;;;;1.00;1.00;;;;;22.70;100.00;101544.50;5075989;28;45470;-69
2023/08/16 05:17:17;;;;;;;;;3.00;1.67;;;;;22.70;100.00;101553.44;5074924;28;59853;-70
2023/08/16 05:19:43;;;;;;;;;1.67;1.67;;;;;22.67;100.00;101552.66;5075917;28;45526;-70
2023/08/16 05:22:08;;;;;;;;;2.00;1.00;;;;;22.67;100.00;101552.66;5074980;28;66734;-69
2023/08/16 05:24:33;;;;;;;;;3.00;1.00;;;;;22.68;100.00;101552.59;5071437;28;67388;-71
2023/08/16 05:26:59;;;;;;;;;3.67;1.00;;;;;22.65;100.00;101558.09;5076187;28;46501;-71
2023/08/16 05:29:24;;;;;;;;;3.00;1.00;;;;;;;;5057488;27;61832;-70
2023/08/16 05:31:50;;;;;;;;;1.00;1.00;;;;;22.70;100.00;101548.06;5076071;27;46195;-70
2023/08/16 05:34:16;;;;;;;;;3.00;2.00;;;;;22.69;100.00;101551.69;5075376;28;45568;-70
2023/08/16 05:36:50;;;;;;;;;1.00;1.00;;;;;22.72;100.00;101553.41;5075224;28;45384;-71
2023/08/16 05:39:15;;;;;;;;;3.00;1.67;;;;;22.71;100.00;101557.91;5057719;28;45400;-70
2023/08/16 05:41:41;;;;;;;;;1.67;1.33;;;;;22.74;100.00;101560.53;5074208;28;71549;-70
2023/08/16 05:44:06;;;;;;;;;1.67;1.67;;;;;22.77;100.00;101564.94;5071988;28;45466;-71
2023/08/16 05:46:32;;;;;;;;;1.00;1.00;;;;;22.80;100.00;101562.16;5074614;28;65345;-69
2023/08/16 05:48:57;;;;;;;;;3.33;2.00;;;;;22.82;100.00;101557.59;5073642;27;66167;-70
2023/08/16 05:51:22;;;;;;;;;3.00;2.00;;;;;22.91;100.00;101560.06;5076092;27;61468;-71
2023/08/16 05:53:48;;;;;;;;;4.00;2.33;;;;;22.93;100.00;101557.34;5074292;28;68450;-71
2023/08/16 05:56:13;;;;;;;;;2.00;2.00;;;;;22.94;100.00;101546.50;5074071;28;61707;-70
2023/08/16 05:58:38;;;;;;;;;4.00;3.00;;;;;22.96;100.00;101555.44;5074145;27;61063;-70
2023/08/16 06:01:04;;;;;;;;;6.33;2.00;;;;;23.02;100.00;101548.13;5074586;28;66563;-70
2023/08/16 06:03:30;;;;;;;;;3.00;2.00;;;;;23.08;100.00;101554.19;5071948;28;45466;-70
2023/08/16 06:05:55;;;;;;;;;2.67;2.00;;;;;23.09;100.00;101560.47;5072182;28;45425;-71
2023/08/16 06:08:20;;;;;;;;;3.33;2.00;;;;;23.17;100.00;101567.41;5074294;28;45427;-71
2023/08/16 06:10:46;;;;;;;;;2.00;2.00;;;;;23.20;100.00;101569.09;5069165;28;72364;-71
2023/08/16 06:13:11;;;;;;;;;3.33;2.00;;;;;23.17;100.00;101572.78;5074900;28;50666;-71
2023/08/16 06:15:36;;;;;;;;;3.33;3.00;;;;;23.16;100.00;101570.13;5074290;28;60828;-70
2023/08/16 06:18:02;;;;;;;;;4.00;2.00;;;;;23.16;100.00;101580.91;5075163;28;45383;-71
2023/08/16 06:20:27;;;;;;;;;3.00;3.00;;;;;23.16;100.00;101579.09;5069353;28;47204;-70
2023/08/16 06:22:53;;;;;;;;;3.00;3.00;;;;;23.18;100.00;101587.16;5070825;28;45506;-71
2023/08/16 06:25:19;;;;;;;;;2.67;1.00;;;;;23.15;100.00;101580.03;5071734;28;45451;-70
2023/08/16 06:27:44;;;;;;;;;3.00;3.00;;;;;23.12;100.00;101577.44;5069006;27;45498;-71
2023/08/16 06:30:10;;;;;;;;;2.00;2.00;;;;;23.10;100.00;101590.03;5070127;27;45651;-70
2023/08/16 06:32:35;;;;;;;;;3.33;3.00;;;;;23.06;100.00;101588.34;5069673;27;45490;-69
2023/08/16 06:35:03;;;;;;;;;3.33;3.33;;;;;23.08;100.00;101583.84;5069584;28;62404;-70
2023/08/16 06:37:29;;;;;;;;;7.33;3.33;;;;;23.02;100.00;101588.53;5075535;28;45387;-70
2023/08/16 06:39:54;;;;;;;;;2.00;2.00;;;;;22.99;100.00;101584.97;5076701;27;47732;-70
2023/08/16 06:42:19;;;;;;;;;6.00;2.00;;;;;23.03;100.00;101598.38;5075484;28;69136;-70
2023/08/16 06:44:45;;;;;;;;;3.00;3.00;;;;;23.03;100.00;101603.75;5074443;28;63298;-70
2023/08/16 06:47:10;;;;;;;;;4.00;2.00;;;;;22.99;100.00;101601.13;5076968;28;45520;-71
2023/08/16 06:49:36;;;;;;;;;4.67;3.00;;;;;22.99;100.00;101595.75;5057375;28;69777;-70
2023/08/16 06:52:01;;;;;;;;;4.00;2.33;;;;;23.03;100.00;101596.56;5071322;28;50903;-70
2023/08/16 06:54:26;;;;;;;;;5.33;2.33;;;;;23.02;100.00;101591.22;5059175;28;45610;-70
2023/08/16 06:56:57;;;;;;;;;3.00;2.00;;;;;22.97;100.00;101588.66;5077923;28;45299;-71
2023/08/16 06:59:23;;;;;;;;;5.00;3.00;;;;;22.99;100.00;101587.66;5075793;27;46368;-71
2023/08/16 07:01:48;;;;;;;;;5.00;2.33;;;;;23.03;100.00;101587.59;5077036;28;45711;-70
2023/08/16 07:04:13;;;;;;;;;4.33;4.33;;;;;23.05;100.00;101580.34;5075388;27;64266;-70
2023/08/16 07:06:39;;;;;;;;;4.67;3.67;;;;;23.05;100.00;101581.22;5077139;28;61534;-70
2023/08/16 07:09:04;;;;;;;;;6.00;5.00;;;;;23.05;100.00;101589.28;5076155;27;69576;-70
2023/08/16 07:11:30;;;;;;;;;4.00;4.00;;;;;23.04;100.00;101592.91;5077923;27;45232;-70
2023/08/16 07:13:55;;;;;;;;;3.33;3.33;;;;;23.05;100.00;101599.19;5076457;27;45457;-71
2023/08/16 07:16:21;;;;;;;;;4.00;4.00;;;;;23.05;100.00;101599.19;5075231;28;62721;-70
2023/08/16 07:18:46;;;;;;;;;6.33;3.33;;;;;23.06;100.00;101591.06;5077372;28;45486;-70
2023/08/16 07:21:11;;;;;;;;;4.00;4.00;;;;;23.14;100.00;101590.84;5055982;28;66580;-70
2023/08/16 07:23:37;;;;;;;;;9.33;6.00;;;;;23.17;100.00;101582.66;5074064;28;45541;-70
2023/08/16 07:26:03;;;;;;;;;5.00;3.00;;;;;23.18;100.00;101593.41;5076790;27;62556;-70
2023/08/16 07:28:28;;;;;;;;;4.33;2.33;;;;;23.19;100.00;101586.22;5072022;28;45834;-70
2023/08/16 07:30:56;;;;;;;;;6.00;5.00;;;;;23.18;100.00;101589.84;5076376;28;59301;-71
2023/08/16 07:33:22;;;;;;;;;5.00;4.00;;;;;23.18;100.00;101596.09;5077474;28;45457;-70
2023/08/16 07:35:49;;;;;;;;;8.00;5.00;;;;;23.22;100.00;101592.41;5075156;28;45395;-70
2023/08/16 07:38:14;;;;;;;;;4.33;4.00;;;;;23.24;100.00;101593.22;5072677;28;47342;-70
2023/08/16 07:40:39;;;;;;;;;4.00;4.00;;;;;23.32;100.00;101598.38;5072637;28;45510;-70
2023/08/16 07:43:05;;;;;;;;;8.67;5.00;;;;;23.34;100.00;101591.16;5132361;22;56864;-70
2023/08/16 07:45:30;;;;;;;;;5.00;3.67;;;;;23.40;100.00;101595.47;5016937;28;45558;-70
2023/08/16 07:47:55;;;;;;;;;3.33;3.00;;;;;23.50;100.00;101592.44;5018455;28;67091;-70
2023/08/16 07:50:21;;;;;;;;;5.67;4.67;;;;;23.56;100.00;101598.59;5016605;28;45477;-70
2023/08/16 07:52:46;;;;;;;;;5.33;4.33;;;;;23.62;100.00;101598.41;5016303;28;45477;-71
2023/08/16 07:55:12;;;;;;;;;8.67;5.00;;;;;23.68;100.00;101593.72;5015472;28;45430;-71
2023/08/16 07:57:37;;;;;;;;;5.67;5.67;;;;;23.68;100.00;101587.44;5010152;28;46224;-71
2023/08/16 08:00:06;;;;;;;;;5.00;4.00;;;;;23.75;100.00;101578.22;5015365;28;65655;-71
2023/08/16 08:02:32;;;;;;;;;7.67;5.00;;;;;23.81;100.00;101587.94;5015445;28;45436;-71
2023/08/16 08:05:01;;;;;;;;;6.00;4.33;;;;;23.87;100.00;101579.66;5022390;28;45371;-71
2023/08/16 08:07:28;;;;;;;;;4.33;3.00;;;;;23.94;100.00;101578.53;5016552;28;47026;-73
2023/08/16 08:09:55;;;;;;;;;9.00;6.00;;;;;24.04;100.00;101585.38;5015519;28;45500;-70
2023/08/16 08:12:20;;;;;;;;;5.00;5.00;;;;;24.09;100.00;101583.41;5016463;28;45479;-71
2023/08/16 08:14:46;;;;;;;;;5.00;4.00;;;;;24.17;100.00;101572.34;4990437;28;66409;-71
2023/08/16 08:17:11;;;;;;;;;6.33;5.00;;;;;24.20;100.00;101567.75;5015935;28;64894;-72
2023/08/16 08:19:36;;;;;;;;;5.33;4.33;;;;;24.26;100.00;101583.72;5016441;28;45528;-70
2023/08/16 08:22:03;;;;;;;;;6.33;6.33;;;;;24.35;100.00;101585.28;5016294;28;61802;-71
2023/08/16 08:24:28;;;;;;;;;4.00;4.00;;;;;24.48;100.00;101583.91;5016055;28;45424;-71
2023/08/16 08:26:54;;;;;;;;;5.67;5.67;;;;;24.53;100.00;101578.34;5016868;28;46478;-70
2023/08/16 08:29:19;;;;;;;;;8.67;4.33;;;;;24.62;100.00;101577.16;5015968;28;45348;-72
2023/08/16 08:31:44;;;;;;;;;5.00;4.00;;;;;24.74;100.00;101584.81;5016382;28;51213;-71
2023/08/16 08:34:10;;;;;;;;;5.00;5.00;;;;;24.82;100.00;101594.41;5016096;28;45475;-72
2023/08/16 08:36:36;;;;;;;;;7.33;5.00;;;;;24.93;100.00;101587.69;5015804;28;47379;-70
2023/08/16 08:39:01;;;;;;;;;3.00;3.00;;;;;25.05;100.00;101607.06;5016152;28;59855;-70
2023/08/16 08:41:26;;;;;;;;;4.67;4.67;;;;;25.16;100.00;101608.53;5015370;28;47837;-70
2023/08/16 08:43:52;;;;;;;;;11.67;7.67;;;;;25.22;100.00;101603.75;5015983;28;45634;-72
2023/08/16 08:46:17;;;;;;;;;7.00;7.00;;;;;25.25;100.00;101602.78;5014875;28;46440;-71
2023/08/16 08:48:44;;;;;;;;;5.67;3.67;;;;;25.27;100.00;101601.78;5014915;28;67495;-71
2023/08/16 08:51:09;;;;;;;;;4.33;3.00;;;;;25.34;100.00;101602.41;5014761;28;45605;-71
2023/08/16 08:53:35;;;;;;;;;4.67;4.00;;;;;25.40;100.00;101606.69;5015902;28;45839;-72
2023/08/16 08:56:10;;;;;;;;;3.00;3.00;;;;;25.41;100.00;101605.75;5014911;28;70490;-71
2023/08/16 08:58:40;;;;;;;;;4.67;3.67;;;;;25.52;100.00;101604.41;5013758;28;45598;-70
2023/08/16 09:01:07;;;;;;;;;6.33;4.67;;;;;25.55;100.00;101600.69;5015558;28;45604;-71
2023/08/16 09:03:33;;;;;;;;;7.67;5.00;;;;;25.67;100.00;101611.03;4997064;28;45663;-70
2023/08/16 09:05:59;;;;;;;;;4.00;4.00;;;;;25.75;100.00;101597.25;4995920;28;46223;-72
2023/08/16 09:08:24;;;;;;;;;5.00;3.00;;;;;25.88;100.00;101595.78;5015465;28;45337;-70
2023/08/16 09:10:50;;;;;;;;;3.00;3.00;;;;;25.99;100.00;101590.81;5016772;28;47402;-70
2023/08/16 09:13:16;;;;;;;;;3.00;3.00;;;;;26.11;100.00;101593.03;5015814;28;45437;-72
2023/08/16 09:15:42;;;;;;;;;3.00;3.00;;;;;26.21;100.00;101585.41;4997170;28;68199;-71
2023/08/16 09:18:08;;;;;;;;;5.67;3.00;;;;;26.35;100.00;101582.09;5015581;28;45404;-70
2023/08/16 09:20:33;;;;;;;;;4.00;4.00;;;;;26.39;100.00;101578.31;5015955;28;45466;-70
2023/08/16 09:22:59;;;;;;;;;8.00;4.33;;;;;26.49;100.00;101577.03;5013899;28;61446;-70
2023/08/16 09:25:24;;;;;;;;;6.00;5.00;;;;;26.68;100.00;101585.19;5015461;28;52276;-71
2023/08/16 09:27:52;;;;;;;;;8.00;4.00;;;;;26.76;100.00;101590.31;5014985;28;45439;-72
2023/08/16 09:30:17;;;;;;;;;4.33;4.33;;;;;26.81;100.00;101580.13;5018738;28;45459;-72
2023/08/16 09:32:44;;;;;;;;;5.00;4.00;;;;;26.91;100.00;101592.31;5015530;28;45422;-72
2023/08/16 09:35:13;;;;;;;;;7.00;4.00;;;;;26.98;100.00;101588.38;4997905;28;47357;-70
2023/08/16 09:37:39;;;;;;;;;5.00;3.33;;;;;27.03;100.00;101583.63;5014556;28;68252;-72
2023/08/16 09:40:06;;;;;;;;;3.67;3.67;;;;;27.05;100.00;101576.28;5015773;28;45452;-72
2023/08/16 09:42:32;;;;;;;;;3.67;3.00;;;;;27.19;100.00;101574.81;5015453;28;45483;-71
2023/08/16 09:44:58;;;;;;;;;4.67;4.67;;;;;27.23;100.00;101569.19;5015034;28;46486;-70
2023/08/16 09:47:25;;;;;;;;;4.33;4.33;;;;;27.25;100.00;101563.69;5014397;28;69093;-71
2023/08/16 09:49:51;;;;;;;;;3.00;3.00;;;;;27.19;100.00;101569.41;5014958;28;45523;-71
2023/08/16 09:52:17;;;;;;;;;4.33;3.00;;;;;27.19;100.00;101558.56;5015412;28;46364;-71
2023/08/16 09:54:48;;;;;;;;;3.00;3.00;;;;;27.23;100.00;101557.47;5016657;28;53286;-71
2023/08/16 09:57:13;;;;;;;;;5.00;3.00;;;;;27.29;100.00;101557.16;5015128;28;45429;-72
2023/08/16 09:59:39;;;;;;;;;3.00;3.00;;;;;27.38;100.00;101548.59;5012975;28;65567;-71
2023/08/16 10:02:08;;;;;;;;;6.67;3.00;;;;;27.46;100.00;101540.97;5015896;28;45598;-72
2023/08/16 10:04:33;;;;;;;;;5.00;4.67;;;;;27.57;100.00;101538.59;4996629;28;45475;-71
2023/08/16 10:07:00;;;;;;;;;2.33;2.33;;;;;27.68;100.00;101536.25;4981031;28;68142;-72
2023/08/16 10:09:26;;;;;;;;;5.67;4.00;;;;;27.80;100.00;101534.78;5014729;28;66756;-71
2023/08/16 10:11:52;;;;;;;;;4.33;4.00;;;;;27.88;100.00;101519.00;4997548;28;45449;-70
2023/08/16 10:14:17;;;;;;;;;3.00;3.00;;;;;27.94;100.00;101517.81;4996366;28;71586;-72
2023/08/16 10:16:47;;;;;;;;;3.33;3.33;;;;;28.03;100.00;101513.78;4997224;28;68443;-71
2023/08/16 10:19:16;;;;;;;;;3.33;3.33;;;;;28.10;100.00;101515.19;4986169;28;45499;-70
2023/08/16 10:21:43;;;;;;;;;3.00;3.00;;;;;28.18;100.00;101508.44;4996734;28;60496;-71
2023/08/16 10:24:09;;;;;;;;;5.00;4.00;;;;;28.32;100.00;101504.97;5014405;28;46382;-73
2023/08/16 10:26:36;;;;;;;;;5.00;3.33;;;;;28.45;100.00;101503.41;4999113;28;45376;-71
2023/08/16 10:29:05;;;;;;;;;3.00;3.00;;;;;28.59;100.00;101509.94;5013769;28;45285;-72
2023/08/16 10:31:34;;;;;;;;;4.00;4.00;;;;;28.74;100.00;101508.25;5015042;28;45623;-73
2023/08/16 10:34:01;;;;;;;;;4.00;4.00;;;;;28.84;100.00;101512.22;4996816;28;46624;-71
2023/08/16 10:36:27;;;;;;;;;5.00;3.67;;;;;28.91;100.00;101506.34;5012262;28;45329;-70
2023/08/16 10:38:55;;;;;;;;;3.00;3.00;;;;;29.00;100.00;101512.28;4996680;28;45381;-73
2023/08/16 10:41:21;;;;;;;;;2.00;2.00;;;;;29.09;100.00;101518.09;5013107;28;45592;-71
2023/08/16 10:43:53;;;;;;;;;2.00;2.00;;;;;29.13;100.00;101508.78;5014158;28;47458;-72
2023/08/16 10:46:29;;;;;;;;;2.00;2.00;;;;;29.20;100.00;101495.75;5013151;28;45303;-71
2023/08/16 10:49:00;;;;;;;;;3.33;2.33;;;;;29.27;100.00;101515.31;5014343;28;45547;-71
2023/08/16 10:51:25;;;;;;;;;2.67;2.67;;;;;29.31;100.00;101516.91;5014570;28;45546;-71
2023/08/16 10:53:51;;;;;;;;;3.33;2.00;;;;;29.32;100.00;101510.47;4997895;28;45629;-72
2023/08/16 10:56:19;;;;;;;;;2.00;2.00;;;;;29.29;100.00;101508.78;5013961;28;45475;-71
2023/08/16 10:58:49;;;;;;;;;2.00;2.00;;;;;29.35;100.00;101510.28;5014807;28;45228;-71
2023/08/16 11:01:15;;;;;;;;;4.00;3.00;;;;;29.32;100.00;101505.91;5014425;28;45564;-73
2023/08/16 11:03:43;;;;;;;;;3.33;2.00;;;;;29.32;100.00;101508.63;5014365;28;46716;-71
2023/08/16 11:06:10;;;;;;;;;4.67;2.33;;;;;29.32;100.00;101499.59;5013859;28;45333;-70
2023/08/16 11:08:40;;;;;;;;;3.00;2.00;;;;;29.37;100.00;101500.22;4993889;28;45478;-71
2023/08/16 11:11:05;;;;;;;;;4.67;2.00;;;;;29.47;100.00;101496.00;5009789;28;45270;-70